Portada
METAR-TAF:

METAR-TAF

Aeropuertos :

Fairfield Municipal Airport

Fairfield, Illinois, Estados Unidos

latitud: 38-22-43N, longitud: 088-24-46W, altitud: 133 m

Observación

El informe se hizo hace 27 minutos, a las 13:35 UTC
Viento 4 kt del sur-suroeste
Temperatura 27°C
Humedad 84%
Presión 1020 hPa
Visibilidad: 16.1 km
Cielo despejado

METAR: KFWC 141335Z AUTO 21004KT 10SM CLR 27/24 A3012 RMK AO2 T02680235

Hora: 09:02 (14:02 UTC)


TAF: falta

Observaciones y pronósticos meteorológicos de más de 4000 aeropuertos (mensajes METAR y TAF).

Los puntos amarillos y rojos representan las estaciones disponibles.

Ponga el ratón en el punto deseado para ver el nombre de la estación.

Haga clic para ver las observaciones y los pronósticos meteorológicos.

Para cambiar el mapa : haga clic en los botones verdes con una cruz de color negro para hacer un zoom, en el botón verde con un guión para alejar o en las flechas verdes para mapas adyacentes.


METAR-TAF: